createdAt,value
2019-04-04T00:01:06.309Z,20.20
2019-04-04T00:03:34.633Z,18.93
2019-04-04T00:06:02.909Z,20.50
2019-04-04T00:08:32.177Z,20.30
2019-04-04T00:11:00.529Z,19.53
2019-04-04T00:13:28.915Z,19.10
2019-04-04T00:16:00.340Z,20.10
2019-04-04T00:18:28.644Z,19.97
2019-04-04T00:20:56.932Z,20.07
2019-04-04T00:23:25.243Z,20.70
2019-04-04T00:25:53.517Z,20.40
2019-04-04T00:28:21.908Z,18.30
2019-04-04T00:30:50.199Z,21.20
2019-04-04T00:33:18.488Z,22.40
2019-04-04T00:35:46.900Z,18.43
2019-04-04T00:38:15.219Z,22.00
2019-04-04T00:40:43.536Z,21.37
2019-04-04T00:43:11.822Z,21.63
2019-04-04T00:45:40.129Z,18.53
2019-04-04T00:48:08.406Z,19.47
2019-04-04T00:50:37.329Z,19.37
2019-04-04T00:53:05.693Z,22.17
2019-04-04T00:55:34.005Z,20.07
2019-04-04T00:58:02.690Z,19.67
2019-04-04T01:00:31.157Z,19.60
2019-04-04T01:02:59.454Z,19.97
2019-04-04T01:05:27.732Z,20.47
2019-04-04T01:07:56.042Z,20.43
2019-04-04T01:10:24.333Z,19.90
2019-04-04T01:12:52.784Z,19.53
2019-04-04T01:15:21.079Z,21.73
2019-04-04T01:17:49.413Z,19.47
2019-04-04T01:20:20.297Z,21.57
2019-04-04T01:22:48.105Z,21.70
2019-04-04T01:25:16.416Z,20.67
2019-04-04T01:27:45.610Z,20.77
2019-04-04T01:30:13.911Z,21.80
2019-04-04T01:32:42.195Z,20.30
2019-04-04T01:35:10.621Z,20.03
2019-04-04T01:37:38.898Z,20.80
2019-04-04T01:40:07.184Z,20.80
2019-04-04T01:42:37.888Z,20.33
2019-04-04T01:45:07.086Z,20.60
2019-04-04T01:47:35.395Z,21.90
2019-04-04T01:50:03.823Z,20.47
2019-04-04T01:52:32.100Z,19.73
2019-04-04T01:55:03.027Z,21.17
2019-04-04T01:57:30.434Z,19.93
2019-04-04T01:59:58.766Z,21.70
2019-04-04T02:02:27.414Z,19.40
2019-04-04T02:04:57.443Z,20.10
2019-04-04T02:07:27.848Z,20.27
2019-04-04T02:09:56.523Z,19.27
2019-04-04T02:12:24.838Z,19.60
2019-04-04T02:14:53.117Z,20.43
2019-04-04T02:17:22.310Z,20.07
2019-04-04T02:19:51.179Z,20.43
2019-04-04T02:22:19.473Z,20.70
2019-04-04T02:24:47.783Z,20.20
2019-04-04T02:27:18.832Z,19.53
2019-04-04T02:29:47.146Z,19.23
2019-04-04T02:32:17.070Z,17.70
2019-04-04T02:34:45.485Z,19.20
2019-04-04T02:37:13.774Z,19.27
2019-04-04T02:39:42.422Z,18.77
2019-04-04T02:42:10.749Z,18.47
2019-04-04T02:44:39.058Z,19.43
2019-04-04T02:47:07.327Z,19.37
2019-04-04T02:49:35.616Z,18.53
2019-04-04T02:52:03.921Z,19.30
2019-04-04T02:54:32.275Z,20.00
2019-04-04T02:57:00.562Z,18.80
2019-04-04T02:59:28.872Z,18.63
2019-04-04T03:01:57.159Z,18.70
2019-04-04T03:04:25.539Z,18.73
2019-04-04T03:06:57.381Z,19.17
2019-04-04T03:09:23.862Z,17.33
2019-04-04T03:11:54.030Z,19.33
2019-04-04T03:14:22.292Z,17.40
2019-04-04T03:16:50.883Z,17.20
2019-04-04T03:19:19.155Z,16.93
2019-04-04T03:21:47.517Z,15.47
2019-04-04T03:24:15.874Z,17.67
2019-04-04T03:26:44.185Z,16.77
2019-04-04T03:29:12.467Z,16.30
2019-04-04T03:31:40.872Z,14.47
2019-04-04T03:34:12.180Z,17.40
2019-04-04T03:36:39.784Z,16.20
2019-04-04T03:39:08.446Z,17.33
2019-04-04T03:41:36.723Z,18.00
2019-04-04T03:44:05.108Z,17.43
2019-04-04T03:46:38.218Z,17.63
2019-04-04T03:49:03.491Z,17.80
2019-04-04T03:51:32.182Z,17.47
2019-04-04T03:54:02.719Z,17.80
2019-04-04T03:56:38.835Z,17.33
2019-04-04T03:59:01.246Z,17.50
2019-04-04T04:01:29.614Z,15.73
2019-04-04T04:03:57.960Z,15.30
2019-04-04T04:06:27.194Z,14.60
2019-04-04T04:08:55.595Z,14.20
2019-04-04T04:11:23.876Z,15.30
2019-04-04T04:13:52.188Z,14.90
2019-04-04T04:16:21.343Z,15.90
2019-04-04T04:18:54.001Z,16.13
2019-04-04T04:21:19.672Z,15.23
2019-04-04T04:23:49.949Z,17.07
2019-04-04T04:26:18.407Z,20.67
2019-04-04T04:28:46.692Z,19.23
2019-04-04T04:31:15.567Z,20.43
2019-04-04T04:33:44.882Z,19.90
2019-04-04T04:36:15.645Z,19.93
2019-04-04T04:38:43.297Z,19.03
2019-04-04T04:41:12.626Z,18.57
2019-04-04T04:43:41.813Z,16.57
2019-04-04T04:46:10.111Z,19.17
2019-04-04T04:48:38.387Z,18.70
2019-04-04T04:51:06.730Z,17.77
2019-04-04T04:53:35.018Z,20.00
2019-04-04T04:56:03.461Z,16.70
2019-04-04T04:58:31.738Z,17.37
2019-04-04T05:01:00.049Z,18.73
2019-04-04T05:03:28.461Z,17.93
2019-04-04T05:06:00.433Z,16.63
2019-04-04T05:08:26.815Z,17.23
2019-04-04T05:10:55.814Z,17.30
2019-04-04T05:13:26.117Z,16.70
2019-04-04T05:15:54.482Z,15.00
2019-04-04T05:18:23.457Z,15.70
2019-04-04T05:20:51.752Z,16.83
2019-04-04T05:23:20.046Z,16.00
2019-04-04T05:25:53.696Z,15.20
2019-04-04T05:28:18.668Z,16.17
2019-04-04T05:30:47.788Z,15.43
2019-04-04T05:33:16.313Z,15.33
2019-04-04T05:35:45.312Z,14.87
2019-04-04T05:38:13.589Z,14.13
2019-04-04T05:40:41.923Z,13.93
2019-04-04T05:43:10.223Z,12.40
2019-04-04T05:45:38.495Z,11.90
2019-04-04T05:48:06.814Z,11.57
2019-04-04T05:50:35.124Z,13.13
2019-04-04T05:53:04.195Z,14.93
2019-04-04T05:55:33.219Z,17.30
2019-04-04T05:58:02.113Z,17.87
2019-04-04T06:00:30.433Z,17.73
2019-04-04T06:02:58.768Z,19.57
2019-04-04T06:05:27.816Z,19.70
2019-04-04T06:07:56.331Z,20.53
2019-04-04T06:10:24.621Z,19.37
2019-04-04T06:12:56.266Z,19.90
2019-04-04T06:15:25.622Z,20.40
2019-04-04T06:17:53.983Z,20.30
2019-04-04T06:20:23.165Z,20.37
2019-04-04T06:22:52.017Z,21.07
2019-04-04T06:25:20.888Z,21.70
2019-04-04T06:27:49.183Z,21.70
2019-04-04T06:30:18.175Z,21.23
2019-04-04T06:32:47.573Z,20.50
2019-04-04T06:35:16.172Z,20.87
2019-04-04T06:37:46.223Z,22.00
2019-04-04T06:40:16.288Z,22.10
2019-04-04T06:42:44.742Z,22.03
2019-04-04T06:45:15.244Z,20.30
2019-04-04T06:47:43.114Z,19.80
2019-04-04T06:50:11.418Z,22.13
2019-04-04T06:52:39.729Z,20.50
2019-04-04T06:55:08.618Z,19.13
2019-04-04T06:57:37.506Z,20.77
2019-04-04T07:00:09.067Z,19.17
2019-04-04T07:02:37.444Z,19.50
2019-04-04T07:05:07.134Z,19.37
2019-04-04T07:07:35.618Z,18.30
2019-04-04T07:10:05.569Z,19.30
2019-04-04T07:12:33.858Z,19.00
2019-04-04T07:15:02.160Z,18.67
2019-04-04T07:17:30.502Z,17.13
2019-04-04T07:19:58.822Z,17.03
2019-04-04T07:22:29.374Z,19.57
2019-04-04T07:24:57.682Z,18.80
2019-04-04T07:27:25.969Z,18.37
2019-04-04T07:29:56.898Z,18.77
2019-04-04T07:32:25.686Z,18.07
2019-04-04T07:34:53.972Z,18.90
2019-04-04T07:37:22.767Z,18.73
2019-04-04T07:39:51.128Z,18.50
2019-04-04T07:42:19.440Z,18.47
2019-04-04T07:44:50.756Z,18.50
2019-04-04T07:47:19.045Z,18.80
2019-04-04T07:49:47.367Z,20.33
2019-04-04T07:52:17.210Z,17.83
2019-04-04T07:54:45.836Z,18.30
2019-04-04T07:57:14.142Z,17.00
2019-04-04T07:59:42.428Z,19.57
2019-04-04T08:02:10.815Z,18.50
2019-04-04T08:04:39.135Z,17.70
2019-04-04T08:07:07.411Z,18.60
2019-04-04T08:09:35.730Z,18.10
2019-04-04T08:12:04.090Z,17.90
2019-04-04T08:14:32.816Z,19.17
2019-04-04T08:17:01.105Z,18.20
2019-04-04T08:19:29.470Z,17.80
2019-04-04T08:21:57.844Z,16.80
2019-04-04T08:24:26.202Z,18.80
2019-04-04T08:26:54.556Z,18.00
2019-04-04T08:29:22.914Z,17.07
2019-04-04T08:31:51.231Z,18.20
2019-04-04T08:34:19.595Z,16.90
2019-04-04T08:36:47.917Z,17.73
2019-04-04T08:39:16.202Z,17.97
2019-04-04T08:41:44.536Z,17.50
2019-04-04T08:44:12.862Z,16.63
2019-04-04T08:46:41.217Z,17.57
2019-04-04T08:49:09.527Z,16.60
2019-04-04T08:51:37.812Z,15.90
2019-04-04T08:54:06.120Z,15.33
2019-04-04T08:56:34.401Z,15.30
2019-04-04T08:59:02.724Z,14.30
2019-04-04T09:01:31.032Z,16.20
2019-04-04T09:03:59.318Z,15.20
2019-04-04T09:06:27.629Z,14.60
2019-04-04T09:08:55.911Z,17.30
2019-04-04T09:11:24.245Z,14.63
2019-04-04T09:13:53.872Z,15.10
2019-04-04T09:16:22.177Z,14.40
2019-04-04T09:18:50.489Z,14.83
2019-04-04T09:21:19.339Z,15.33
2019-04-04T09:23:48.322Z,14.67
2019-04-04T09:26:16.636Z,15.33
2019-04-04T09:28:44.917Z,15.67
2019-04-04T09:31:13.233Z,14.80
2019-04-04T09:33:41.610Z,16.10
2019-04-04T09:36:10.659Z,13.53
2019-04-04T09:38:39.033Z,15.53
2019-04-04T09:41:07.488Z,14.87
2019-04-04T09:43:35.781Z,15.47
2019-04-04T09:46:04.078Z,14.00
2019-04-04T09:48:33.149Z,15.10
2019-04-04T09:51:01.431Z,13.27
2019-04-04T09:53:30.035Z,13.70
2019-04-04T09:56:01.039Z,13.83
2019-04-04T09:58:29.343Z,13.70
2019-04-04T10:00:57.735Z,14.37
2019-04-04T10:03:26.045Z,13.90
2019-04-04T10:05:54.398Z,14.03
2019-04-04T10:08:23.688Z,15.37
2019-04-04T10:10:52.378Z,13.27
2019-04-04T10:13:20.653Z,12.60
2019-04-04T10:15:48.962Z,9.73
2019-04-04T10:18:17.265Z,11.37
2019-04-04T10:20:45.567Z,11.67
2019-04-04T10:23:13.893Z,12.17
2019-04-04T10:25:42.763Z,9.73
2019-04-04T10:28:11.442Z,10.03
2019-04-04T10:30:39.721Z,9.63
2019-04-04T10:33:08.029Z,10.20
2019-04-04T10:35:36.318Z,10.03
2019-04-04T10:38:04.815Z,10.10
2019-04-04T10:40:33.093Z,9.63
2019-04-04T10:43:01.372Z,9.27
2019-04-04T10:45:29.669Z,8.60
2019-04-04T10:47:57.963Z,9.70
2019-04-04T10:50:26.338Z,5.33
2019-04-04T10:52:54.627Z,7.20
2019-04-04T10:55:22.928Z,6.53
2019-04-04T10:57:51.356Z,4.53
2019-04-04T11:00:19.644Z,1.80
2019-04-04T11:02:47.930Z,1.77
2019-04-04T11:05:16.230Z,2.00
2019-04-04T11:07:44.533Z,2.50
2019-04-04T11:10:12.807Z,3.10
2019-04-04T11:12:41.108Z,2.73
2019-04-04T11:15:09.388Z,3.13
2019-04-04T11:17:37.999Z,3.53
2019-04-04T11:20:06.867Z,3.47
2019-04-04T11:22:35.171Z,2.93
2019-04-04T11:25:03.486Z,3.50
2019-04-04T11:27:31.772Z,3.27
2019-04-04T11:30:00.255Z,3.97
2019-04-04T11:32:28.670Z,3.97
2019-04-04T11:34:56.958Z,3.73
2019-04-04T11:37:25.260Z,4.10
2019-04-04T11:39:54.985Z,3.87
2019-04-04T11:42:23.614Z,3.80
2019-04-04T11:44:51.884Z,4.83
2019-04-04T11:47:20.232Z,3.63
2019-04-04T11:49:48.500Z,4.00
2019-04-04T11:52:16.779Z,4.50
2019-04-04T11:55:01.291Z,4.30
2019-04-04T11:57:29.646Z,4.80
2019-04-04T11:59:58.632Z,4.37
2019-04-04T12:02:28.281Z,4.43
2019-04-04T12:04:57.952Z,3.70
2019-04-04T12:07:26.340Z,3.80
2019-04-04T12:10:06.726Z,3.53
2019-04-04T12:12:24.775Z,3.20
2019-04-04T12:14:53.049Z,4.10
2019-04-04T12:17:21.456Z,4.10
2019-04-04T12:19:49.728Z,5.50
2019-04-04T12:22:18.010Z,4.90
2019-04-04T12:24:46.336Z,4.23
2019-04-04T12:27:14.598Z,3.00
2019-04-04T12:29:43.002Z,4.00
2019-04-04T12:32:11.287Z,3.53
2019-04-04T12:34:39.579Z,3.43
2019-04-04T12:37:07.885Z,2.93
2019-04-04T12:39:36.187Z,3.13
2019-04-04T12:42:04.492Z,2.60
2019-04-04T12:44:32.865Z,2.63
2019-04-04T12:47:01.166Z,2.13
2019-04-04T12:49:29.749Z,3.10
2019-04-04T12:51:58.163Z,2.23
2019-04-04T12:54:26.443Z,2.40
2019-04-04T12:56:54.713Z,2.30
2019-04-04T12:59:23.026Z,2.03
2019-04-04T13:01:51.319Z,2.10
2019-04-04T13:04:30.652Z,2.57
2019-04-04T13:06:49.683Z,2.00
2019-04-04T13:09:18.133Z,1.83
2019-04-04T13:11:46.454Z,1.37
2019-04-04T13:14:14.766Z,1.30
2019-04-04T13:16:43.060Z,1.70
2019-04-04T13:19:11.472Z,2.00
2019-04-04T13:21:40.948Z,1.47
2019-04-04T13:24:09.228Z,2.27
2019-04-04T13:26:37.529Z,2.30
2019-04-04T13:29:05.809Z,1.77
2019-04-04T13:31:34.128Z,3.20
2019-04-04T13:34:02.402Z,2.23
2019-04-04T13:36:30.719Z,2.80
2019-04-04T13:38:58.997Z,2.60
2019-04-04T13:41:27.308Z,2.37
2019-04-04T13:43:56.153Z,2.40
2019-04-04T13:46:25.915Z,2.73
2019-04-04T13:48:55.209Z,2.47
2019-04-04T13:51:25.519Z,2.70
2019-04-04T13:53:53.516Z,2.87
2019-04-04T13:56:21.796Z,2.77
2019-04-04T13:58:50.091Z,2.43
2019-04-04T14:01:18.365Z,2.40
2019-04-04T14:03:46.674Z,2.00
2019-04-04T14:06:14.978Z,2.80
2019-04-04T14:08:45.708Z,2.60
2019-04-04T14:11:13.274Z,3.10
2019-04-04T14:13:41.567Z,2.13
2019-04-04T14:16:09.857Z,2.73
2019-04-04T14:18:40.087Z,3.20
2019-04-04T14:21:08.262Z,2.33
2019-04-04T14:23:36.563Z,2.90
2019-04-04T14:26:08.224Z,2.70
2019-04-04T14:28:36.484Z,2.87
2019-04-04T14:31:08.141Z,2.60
2019-04-04T14:33:37.927Z,3.33
2019-04-04T14:36:06.324Z,2.20
2019-04-04T14:38:34.716Z,2.30
2019-04-04T14:41:11.030Z,1.83
2019-04-04T14:43:32.966Z,2.37
2019-04-04T14:46:02.899Z,3.00
2019-04-04T14:48:31.204Z,2.80
2019-04-04T14:50:59.650Z,2.80
2019-04-04T14:53:27.910Z,3.00
2019-04-04T14:55:56.194Z,2.70
2019-04-04T14:58:25.365Z,2.67
2019-04-04T15:00:53.650Z,2.50
2019-04-04T15:03:22.714Z,2.70
2019-04-04T15:05:51.065Z,2.73
2019-04-04T15:08:19.364Z,2.30
2019-04-04T15:10:47.677Z,2.67
2019-04-04T15:13:16.052Z,3.10
2019-04-04T15:16:12.573Z,3.00
2019-04-04T15:18:42.737Z,3.20
2019-04-04T15:21:11.061Z,3.03
2019-04-04T15:23:39.332Z,4.00
2019-04-04T15:26:09.787Z,3.60
2019-04-04T15:28:37.640Z,4.33
2019-04-04T15:31:06.367Z,3.83
2019-04-04T15:33:34.649Z,3.13
2019-04-04T15:36:03.035Z,3.10
2019-04-04T15:38:31.351Z,3.47
2019-04-04T15:40:59.706Z,2.93
2019-04-04T15:43:27.971Z,2.80
2019-04-04T15:45:56.253Z,3.30
2019-04-04T15:48:24.578Z,4.23
2019-04-04T15:50:52.871Z,3.60
2019-04-04T15:53:21.153Z,4.10
2019-04-04T15:55:49.458Z,3.70
2019-04-04T15:58:17.747Z,3.77
2019-04-04T16:00:46.151Z,3.00
2019-04-04T16:03:17.789Z,3.40
2019-04-04T16:05:46.762Z,3.53
2019-04-04T16:08:15.071Z,3.70
2019-04-04T16:10:43.352Z,4.33
2019-04-04T16:13:11.658Z,3.23
2019-04-04T16:15:39.953Z,3.40
2019-04-04T16:18:08.295Z,3.80
2019-04-04T16:20:36.579Z,3.93
2019-04-04T16:23:04.858Z,3.83
2019-04-04T16:25:33.171Z,4.60
2019-04-04T16:28:02.027Z,4.47
2019-04-04T16:30:30.330Z,3.83
2019-04-04T16:32:58.675Z,4.70
2019-04-04T16:35:27.008Z,4.40
2019-04-04T16:37:55.289Z,4.40
2019-04-04T16:40:23.577Z,4.10
2019-04-04T16:42:51.884Z,4.00
2019-04-04T16:45:20.172Z,3.70
2019-04-04T16:47:48.956Z,3.40
2019-04-04T16:50:17.240Z,3.43
2019-04-04T16:52:45.562Z,3.53
2019-04-04T16:55:13.839Z,3.60
2019-04-04T16:57:43.540Z,4.80
2019-04-04T17:00:12.806Z,5.20
2019-04-04T17:02:41.211Z,4.30
2019-04-04T17:05:11.051Z,3.83
2019-04-04T17:07:39.718Z,3.40
2019-04-04T17:10:08.268Z,4.03
2019-04-04T17:12:37.254Z,3.93
2019-04-04T17:15:07.254Z,11.80
2019-04-04T17:17:35.622Z,11.50
2019-04-04T17:20:06.654Z,10.00
2019-04-04T17:22:35.035Z,12.67
2019-04-04T17:25:03.383Z,8.10
2019-04-04T17:27:31.668Z,6.30
2019-04-04T17:30:00.286Z,4.40
2019-04-04T17:32:29.518Z,4.63
2019-04-04T17:34:58.079Z,5.00
2019-04-04T17:37:27.107Z,5.13
2019-04-04T17:39:55.767Z,6.10
2019-04-04T17:42:30.221Z,10.27
2019-04-04T17:44:54.877Z,8.47
2019-04-04T17:47:23.878Z,10.07
2019-04-04T17:49:52.509Z,9.10
2019-04-04T17:52:21.002Z,8.90
2019-04-04T17:54:49.957Z,8.57
2019-04-04T17:57:21.321Z,9.20
2019-04-04T17:59:49.701Z,14.50
2019-04-04T18:02:18.349Z,14.77
2019-04-04T18:04:48.474Z,16.57
2019-04-04T18:07:16.678Z,13.20
2019-04-04T18:09:45.922Z,9.20
2019-04-04T18:12:16.792Z,8.63
2019-04-04T18:14:44.451Z,8.80
2019-04-04T18:17:12.927Z,8.33
2019-04-04T18:19:41.572Z,6.67
2019-04-04T18:22:10.141Z,6.03
2019-04-04T18:24:38.440Z,4.80
2019-04-04T18:27:07.154Z,5.73
2019-04-04T18:29:35.468Z,5.70
2019-04-04T18:32:03.866Z,6.33
2019-04-04T18:34:32.686Z,7.03
2019-04-04T18:37:01.472Z,7.33
2019-04-04T18:39:29.787Z,7.90
2019-04-04T18:41:58.073Z,6.30
2019-04-04T18:44:26.429Z,6.37
2019-04-04T18:46:54.713Z,6.87
2019-04-04T18:49:23.080Z,7.50
2019-04-04T18:51:51.409Z,7.40
2019-04-04T18:54:19.691Z,8.00
2019-04-04T18:56:48.012Z,8.13
2019-04-04T18:59:16.325Z,8.77
2019-04-04T19:01:45.134Z,7.90
2019-04-04T19:04:13.442Z,8.70
2019-04-04T19:06:42.148Z,9.27
2019-04-04T19:09:15.045Z,10.23
2019-04-04T19:11:42.164Z,11.50
2019-04-04T19:14:10.590Z,11.00
2019-04-04T19:16:38.875Z,10.37
2019-04-04T19:19:07.235Z,11.00
2019-04-04T19:21:35.637Z,10.33
2019-04-04T19:24:03.995Z,9.40
2019-04-04T19:26:32.465Z,10.37
2019-04-04T19:29:03.021Z,10.97
2019-04-04T19:31:31.305Z,10.70
2019-04-04T19:33:59.596Z,12.27
2019-04-04T19:36:27.914Z,12.70
2019-04-04T19:38:56.229Z,10.03
2019-04-04T19:41:24.541Z,11.07
2019-04-04T19:43:52.831Z,12.17
2019-04-04T19:46:21.290Z,11.70
2019-04-04T19:48:49.579Z,11.13
2019-04-04T19:51:17.878Z,11.63
2019-04-04T19:53:46.187Z,11.80
2019-04-04T19:56:14.718Z,12.57
2019-04-04T19:58:43.004Z,12.93
2019-04-04T20:01:11.292Z,12.13
2019-04-04T20:03:39.801Z,11.57
2019-04-04T20:06:08.081Z,12.00
2019-04-04T20:08:36.361Z,11.30
2019-04-04T20:11:04.679Z,12.53
2019-04-04T20:13:33.043Z,12.80
2019-04-04T20:16:01.508Z,12.90
2019-04-04T20:18:29.791Z,13.73
2019-04-04T20:20:58.441Z,12.80
2019-04-04T20:23:26.724Z,14.27
2019-04-04T20:25:55.075Z,13.70
2019-04-04T20:28:23.366Z,13.00
2019-04-04T20:30:51.651Z,12.70
2019-04-04T20:33:20.724Z,12.00
2019-04-04T20:35:49.042Z,11.77
2019-04-04T20:38:17.388Z,12.27
2019-04-04T20:40:45.724Z,14.40
2019-04-04T20:43:14.016Z,12.17
2019-04-04T20:45:42.382Z,12.63
2019-04-04T20:48:10.851Z,11.93
2019-04-04T20:50:39.149Z,12.27
2019-04-04T20:53:07.435Z,10.80
2019-04-04T20:55:35.765Z,11.97
2019-04-04T20:58:04.044Z,11.63
2019-04-04T21:00:32.426Z,13.23
2019-04-04T21:03:00.991Z,11.80
2019-04-04T21:05:29.363Z,11.00
2019-04-04T21:07:57.664Z,10.87
2019-04-04T21:10:25.955Z,10.57
2019-04-04T21:12:54.271Z,11.63
2019-04-04T21:15:22.602Z,11.70
2019-04-04T21:17:50.908Z,11.23
2019-04-04T21:20:19.963Z,10.50
2019-04-04T21:22:48.369Z,9.23
2019-04-04T21:25:16.680Z,9.00
2019-04-04T21:27:44.993Z,8.57
2019-04-04T21:30:13.304Z,7.33
2019-04-04T21:32:41.583Z,8.90
2019-04-04T21:35:09.878Z,7.50
2019-04-04T21:37:38.192Z,8.70
2019-04-04T21:40:06.478Z,8.53
2019-04-04T21:42:35.465Z,10.20
2019-04-04T21:45:05.491Z,11.50
2019-04-04T21:47:33.776Z,10.20
2019-04-04T21:50:02.093Z,8.47
2019-04-04T21:52:30.574Z,7.30
2019-04-04T21:54:58.866Z,8.17
2019-04-04T21:57:27.727Z,7.20
2019-04-04T21:59:56.043Z,6.70
2019-04-04T22:02:24.325Z,6.53
2019-04-04T22:04:52.750Z,7.50
2019-04-04T22:07:21.038Z,7.73
2019-04-04T22:09:49.568Z,7.53
2019-04-04T22:12:17.922Z,6.67
2019-04-04T22:14:46.305Z,7.70
2019-04-04T22:17:14.587Z,7.13
2019-04-04T22:19:42.949Z,7.43
2019-04-04T22:22:11.256Z,7.43
2019-04-04T22:24:39.589Z,8.60
2019-04-04T22:27:07.877Z,8.40
2019-04-04T22:29:36.189Z,7.47
2019-04-04T22:32:04.472Z,8.27
2019-04-04T22:34:33.450Z,7.80
2019-04-04T22:37:01.794Z,7.37
2019-04-04T22:39:30.078Z,7.87
2019-04-04T22:41:58.371Z,8.97
2019-04-04T22:44:34.541Z,9.37
2019-04-04T22:46:56.693Z,8.30
2019-04-04T22:49:25.081Z,9.17
2019-04-04T22:51:53.374Z,8.30
2019-04-04T22:54:21.687Z,9.43
2019-04-04T22:56:49.964Z,9.37
2019-04-04T22:59:18.283Z,10.00
2019-04-04T23:01:46.574Z,10.03
2019-04-04T23:04:16.945Z,11.43
2019-04-04T23:06:45.323Z,10.50
2019-04-04T23:09:13.642Z,10.60
2019-04-04T23:11:42.016Z,10.80
2019-04-04T23:14:10.318Z,12.00
2019-04-04T23:16:38.609Z,11.47
2019-04-04T23:19:06.920Z,13.30
2019-04-04T23:21:35.216Z,14.90
2019-04-04T23:24:03.592Z,12.57
2019-04-04T23:26:31.874Z,12.90
2019-04-04T23:29:00.831Z,13.07
2019-04-04T23:31:29.140Z,13.57
2019-04-04T23:33:57.434Z,16.07
2019-04-04T23:36:34.975Z,14.13
2019-04-04T23:38:55.853Z,13.40
2019-04-04T23:41:24.146Z,13.13
2019-04-04T23:43:52.430Z,14.60
2019-04-04T23:46:21.012Z,14.90
2019-04-04T23:48:49.299Z,15.00
2019-04-04T23:51:17.679Z,13.90
2019-04-04T23:53:45.974Z,14.47
2019-04-04T23:56:14.286Z,14.97
2019-04-04T23:58:42.603Z,16.67
